sensor_id;sensor_type;location;lat;lon;timestamp;P1;durP1;ratioP1;P2;durP2;ratioP2
16634;SDS011;8431;52.458;9.998;2024-02-14T00:00:19;8.05;;;7.55;;
16634;SDS011;8431;52.458;9.998;2024-02-14T00:02:46;7.60;;;7.18;;
16634;SDS011;8431;52.458;9.998;2024-02-14T00:05:14;7.40;;;7.07;;
16634;SDS011;8431;52.458;9.998;2024-02-14T00:07:41;8.05;;;7.47;;
16634;SDS011;8431;52.458;9.998;2024-02-14T00:10:08;8.18;;;7.65;;
16634;SDS011;8431;52.458;9.998;2024-02-14T00:12:35;7.82;;;7.53;;
16634;SDS011;8431;52.458;9.998;2024-02-14T00:15:04;8.38;;;7.78;;
16634;SDS011;8431;52.458;9.998;2024-02-14T00:17:32;8.43;;;7.75;;
16634;SDS011;8431;52.458;9.998;2024-02-14T00:19:59;7.68;;;7.25;;
16634;SDS011;8431;52.458;9.998;2024-02-14T00:22:26;8.73;;;8.10;;
16634;SDS011;8431;52.458;9.998;2024-02-14T00:24:53;8.77;;;8.27;;
16634;SDS011;8431;52.458;9.998;2024-02-14T00:27:20;7.80;;;7.40;;
16634;SDS011;8431;52.458;9.998;2024-02-14T00:29:47;9.95;;;8.93;;
16634;SDS011;8431;52.458;9.998;2024-02-14T00:32:15;8.55;;;8.15;;
16634;SDS011;8431;52.458;9.998;2024-02-14T00:34:42;8.73;;;8.23;;
16634;SDS011;8431;52.458;9.998;2024-02-14T00:37:10;8.60;;;8.05;;
16634;SDS011;8431;52.458;9.998;2024-02-14T00:39:36;8.60;;;8.05;;
16634;SDS011;8431;52.458;9.998;2024-02-14T00:42:03;8.93;;;8.20;;
16634;SDS011;8431;52.458;9.998;2024-02-14T00:44:30;9.13;;;8.25;;
16634;SDS011;8431;52.458;9.998;2024-02-14T00:46:57;8.82;;;8.38;;
16634;SDS011;8431;52.458;9.998;2024-02-14T00:49:27;8.90;;;8.40;;
16634;SDS011;8431;52.458;9.998;2024-02-14T00:51:55;8.38;;;7.85;;
16634;SDS011;8431;52.458;9.998;2024-02-14T00:54:22;8.82;;;8.52;;
16634;SDS011;8431;52.458;9.998;2024-02-14T00:56:49;8.85;;;8.45;;
16634;SDS011;8431;52.458;9.998;2024-02-14T00:59:15;8.73;;;8.23;;
16634;SDS011;8431;52.458;9.998;2024-02-14T01:01:43;8.35;;;7.95;;
16634;SDS011;8431;52.458;9.998;2024-02-14T01:04:10;8.93;;;8.52;;
16634;SDS011;8431;52.458;9.998;2024-02-14T01:06:38;9.75;;;9.25;;
16634;SDS011;8431;52.458;9.998;2024-02-14T01:09:05;9.90;;;9.40;;
16634;SDS011;8431;52.458;9.998;2024-02-14T01:11:33;8.70;;;8.23;;
16634;SDS011;8431;52.458;9.998;2024-02-14T01:14:00;8.57;;;8.18;;
16634;SDS011;8431;52.458;9.998;2024-02-14T01:16:27;7.65;;;7.25;;
16634;SDS011;8431;52.458;9.998;2024-02-14T01:18:54;8.40;;;7.90;;
16634;SDS011;8431;52.458;9.998;2024-02-14T01:21:21;8.65;;;8.27;;
16634;SDS011;8431;52.458;9.998;2024-02-14T01:23:50;8.90;;;8.40;;
16634;SDS011;8431;52.458;9.998;2024-02-14T01:26:17;8.85;;;8.45;;
16634;SDS011;8431;52.458;9.998;2024-02-14T01:28:45;8.43;;;7.97;;
16634;SDS011;8431;52.458;9.998;2024-02-14T01:31:12;8.65;;;8.15;;
16634;SDS011;8431;52.458;9.998;2024-02-14T01:33:39;8.73;;;8.10;;
16634;SDS011;8431;52.458;9.998;2024-02-14T01:36:06;8.88;;;8.18;;
16634;SDS011;8431;52.458;9.998;2024-02-14T01:38:32;8.98;;;8.25;;
16634;SDS011;8431;52.458;9.998;2024-02-14T01:41:02;9.52;;;8.68;;
16634;SDS011;8431;52.458;9.998;2024-02-14T01:43:31;9.43;;;9.00;;
16634;SDS011;8431;52.458;9.998;2024-02-14T01:46:07;9.20;;;8.60;;
16634;SDS011;8431;52.458;9.998;2024-02-14T01:48:34;9.35;;;8.85;;
16634;SDS011;8431;52.458;9.998;2024-02-14T01:51:02;10.00;;;9.10;;
16634;SDS011;8431;52.458;9.998;2024-02-14T01:53:32;8.48;;;8.07;;
16634;SDS011;8431;52.458;9.998;2024-02-14T01:55:59;8.77;;;8.27;;
16634;SDS011;8431;52.458;9.998;2024-02-14T01:58:27;9.38;;;8.95;;
16634;SDS011;8431;52.458;9.998;2024-02-14T02:00:55;9.18;;;8.63;;
16634;SDS011;8431;52.458;9.998;2024-02-14T02:03:23;8.85;;;8.32;;
16634;SDS011;8431;52.458;9.998;2024-02-14T02:05:51;11.52;;;9.27;;
16634;SDS011;8431;52.458;9.998;2024-02-14T02:08:21;9.10;;;8.55;;
16634;SDS011;8431;52.458;9.998;2024-02-14T02:10:48;9.60;;;9.00;;
16634;SDS011;8431;52.458;9.998;2024-02-14T02:13:15;9.18;;;8.55;;
16634;SDS011;8431;52.458;9.998;2024-02-14T02:15:43;8.48;;;8.07;;
16634;SDS011;8431;52.458;9.998;2024-02-14T02:18:10;8.27;;;7.78;;
16634;SDS011;8431;52.458;9.998;2024-02-14T02:20:38;9.15;;;8.48;;
16634;SDS011;8431;52.458;9.998;2024-02-14T02:23:08;8.88;;;8.10;;
16634;SDS011;8431;52.458;9.998;2024-02-14T02:25:39;8.45;;;7.75;;
16634;SDS011;8431;52.458;9.998;2024-02-14T02:28:06;8.63;;;8.32;;
16634;SDS011;8431;52.458;9.998;2024-02-14T02:30:33;9.20;;;8.70;;
16634;SDS011;8431;52.458;9.998;2024-02-14T02:33:01;9.10;;;8.50;;
16634;SDS011;8431;52.458;9.998;2024-02-14T02:35:28;8.43;;;7.95;;
16634;SDS011;8431;52.458;9.998;2024-02-14T02:37:55;8.23;;;7.60;;
16634;SDS011;8431;52.458;9.998;2024-02-14T02:40:23;8.18;;;7.57;;
16634;SDS011;8431;52.458;9.998;2024-02-14T02:42:50;8.57;;;8.10;;
16634;SDS011;8431;52.458;9.998;2024-02-14T02:45:17;8.75;;;8.20;;
16634;SDS011;8431;52.458;9.998;2024-02-14T02:47:44;8.70;;;8.20;;
16634;SDS011;8431;52.458;9.998;2024-02-14T02:50:11;9.07;;;8.57;;
16634;SDS011;8431;52.458;9.998;2024-02-14T02:52:38;9.18;;;8.48;;
16634;SDS011;8431;52.458;9.998;2024-02-14T02:55:06;8.88;;;8.48;;
16634;SDS011;8431;52.458;9.998;2024-02-14T02:57:34;9.00;;;8.60;;
16634;SDS011;8431;52.458;9.998;2024-02-14T03:00:02;9.60;;;9.00;;
16634;SDS011;8431;52.458;9.998;2024-02-14T03:02:30;8.95;;;8.55;;
16634;SDS011;8431;52.458;9.998;2024-02-14T03:04:57;9.15;;;8.70;;
16634;SDS011;8431;52.458;9.998;2024-02-14T03:07:25;9.38;;;8.60;;
16634;SDS011;8431;52.458;9.998;2024-02-14T03:09:51;8.90;;;8.20;;
16634;SDS011;8431;52.458;9.998;2024-02-14T03:12:18;9.10;;;8.60;;
16634;SDS011;8431;52.458;9.998;2024-02-14T03:14:47;8.93;;;8.35;;
16634;SDS011;8431;52.458;9.998;2024-02-14T03:17:14;8.88;;;8.38;;
16634;SDS011;8431;52.458;9.998;2024-02-14T03:19:41;9.40;;;8.70;;
16634;SDS011;8431;52.458;9.998;2024-02-14T03:22:08;9.60;;;9.07;;
16634;SDS011;8431;52.458;9.998;2024-02-14T03:24:35;10.52;;;9.57;;
16634;SDS011;8431;52.458;9.998;2024-02-14T03:27:03;10.48;;;9.77;;
16634;SDS011;8431;52.458;9.998;2024-02-14T03:29:30;10.77;;;10.00;;
16634;SDS011;8431;52.458;9.998;2024-02-14T03:31:59;10.55;;;9.75;;
16634;SDS011;8431;52.458;9.998;2024-02-14T03:34:29;9.80;;;9.15;;
16634;SDS011;8431;52.458;9.998;2024-02-14T03:36:58;10.65;;;9.93;;
16634;SDS011;8431;52.458;9.998;2024-02-14T03:39:27;9.55;;;8.82;;
16634;SDS011;8431;52.458;9.998;2024-02-14T03:41:54;11.15;;;10.23;;
16634;SDS011;8431;52.458;9.998;2024-02-14T03:44:21;9.95;;;9.35;;
16634;SDS011;8431;52.458;9.998;2024-02-14T03:46:48;9.45;;;8.88;;
16634;SDS011;8431;52.458;9.998;2024-02-14T03:49:16;10.55;;;9.80;;
16634;SDS011;8431;52.458;9.998;2024-02-14T03:51:43;11.10;;;10.05;;
16634;SDS011;8431;52.458;9.998;2024-02-14T03:54:10;10.95;;;10.13;;
16634;SDS011;8431;52.458;9.998;2024-02-14T03:56:37;10.45;;;9.65;;
16634;SDS011;8431;52.458;9.998;2024-02-14T03:59:04;9.23;;;8.57;;
16634;SDS011;8431;52.458;9.998;2024-02-14T04:01:32;9.65;;;9.07;;
16634;SDS011;8431;52.458;9.998;2024-02-14T04:04:00;9.55;;;8.85;;
16634;SDS011;8431;52.458;9.998;2024-02-14T04:06:29;9.88;;;9.27;;
16634;SDS011;8431;52.458;9.998;2024-02-14T04:08:56;11.07;;;10.15;;
16634;SDS011;8431;52.458;9.998;2024-02-14T04:11:24;10.27;;;9.60;;
16634;SDS011;8431;52.458;9.998;2024-02-14T04:13:51;9.75;;;9.15;;
16634;SDS011;8431;52.458;9.998;2024-02-14T04:16:19;10.32;;;9.52;;
16634;SDS011;8431;52.458;9.998;2024-02-14T04:18:47;10.85;;;9.98;;
16634;SDS011;8431;52.458;9.998;2024-02-14T04:21:14;13.23;;;9.63;;
16634;SDS011;8431;52.458;9.998;2024-02-14T04:23:42;9.68;;;9.15;;
16634;SDS011;8431;52.458;9.998;2024-02-14T04:26:09;9.70;;;8.95;;
16634;SDS011;8431;52.458;9.998;2024-02-14T04:28:35;9.95;;;9.18;;
16634;SDS011;8431;52.458;9.998;2024-02-14T04:31:05;9.77;;;8.88;;
16634;SDS011;8431;52.458;9.998;2024-02-14T04:33:32;9.27;;;8.77;;
16634;SDS011;8431;52.458;9.998;2024-02-14T04:35:59;8.75;;;8.32;;
16634;SDS011;8431;52.458;9.998;2024-02-14T04:38:26;9.13;;;8.60;;
16634;SDS011;8431;52.458;9.998;2024-02-14T04:40:55;9.45;;;8.85;;
16634;SDS011;8431;52.458;9.998;2024-02-14T04:43:23;10.02;;;9.20;;
16634;SDS011;8431;52.458;9.998;2024-02-14T04:45:50;9.15;;;8.50;;
16634;SDS011;8431;52.458;9.998;2024-02-14T04:48:17;8.75;;;8.20;;
16634;SDS011;8431;52.458;9.998;2024-02-14T04:50:43;9.27;;;8.52;;
16634;SDS011;8431;52.458;9.998;2024-02-14T04:53:10;9.32;;;8.73;;
16634;SDS011;8431;52.458;9.998;2024-02-14T04:55:37;9.32;;;8.73;;
16634;SDS011;8431;52.458;9.998;2024-02-14T04:58:05;9.05;;;8.38;;
16634;SDS011;8431;52.458;9.998;2024-02-14T05:00:32;8.98;;;8.38;;
16634;SDS011;8431;52.458;9.998;2024-02-14T05:02:59;9.85;;;9.32;;
16634;SDS011;8431;52.458;9.998;2024-02-14T05:05:26;9.07;;;8.45;;
16634;SDS011;8431;52.458;9.998;2024-02-14T05:07:53;9.55;;;8.75;;
16634;SDS011;8431;52.458;9.998;2024-02-14T05:10:20;9.50;;;8.90;;
16634;SDS011;8431;52.458;9.998;2024-02-14T05:12:46;9.40;;;8.70;;
16634;SDS011;8431;52.458;9.998;2024-02-14T05:15:15;9.48;;;8.68;;
16634;SDS011;8431;52.458;9.998;2024-02-14T05:17:42;9.00;;;8.50;;
16634;SDS011;8431;52.458;9.998;2024-02-14T05:20:09;10.27;;;9.50;;
16634;SDS011;8431;52.458;9.998;2024-02-14T05:22:36;9.15;;;8.45;;
16634;SDS011;8431;52.458;9.998;2024-02-14T05:25:04;9.30;;;8.57;;
16634;SDS011;8431;52.458;9.998;2024-02-14T05:27:33;9.40;;;8.90;;
16634;SDS011;8431;52.458;9.998;2024-02-14T05:30:00;9.65;;;8.90;;
16634;SDS011;8431;52.458;9.998;2024-02-14T05:32:31;9.50;;;8.80;;
16634;SDS011;8431;52.458;9.998;2024-02-14T05:34:58;8.68;;;8.07;;
16634;SDS011;8431;52.458;9.998;2024-02-14T05:37:25;9.05;;;8.38;;
16634;SDS011;8431;52.458;9.998;2024-02-14T05:39:53;8.77;;;8.27;;
16634;SDS011;8431;52.458;9.998;2024-02-14T05:42:20;8.20;;;7.70;;
16634;SDS011;8431;52.458;9.998;2024-02-14T05:44:47;7.78;;;7.20;;
16634;SDS011;8431;52.458;9.998;2024-02-14T05:47:14;8.00;;;7.50;;
16634;SDS011;8431;52.458;9.998;2024-02-14T05:49:45;8.07;;;7.47;;
16634;SDS011;8431;52.458;9.998;2024-02-14T05:52:12;8.55;;;8.00;;
16634;SDS011;8431;52.458;9.998;2024-02-14T05:54:40;8.27;;;7.45;;
16634;SDS011;8431;52.458;9.998;2024-02-14T05:57:08;8.43;;;7.80;;
16634;SDS011;8431;52.458;9.998;2024-02-14T05:59:35;8.15;;;7.65;;
16634;SDS011;8431;52.458;9.998;2024-02-14T06:02:02;8.35;;;7.63;;
16634;SDS011;8431;52.458;9.998;2024-02-14T06:04:30;7.78;;;7.25;;
16634;SDS011;8431;52.458;9.998;2024-02-14T06:06:58;7.30;;;6.90;;
16634;SDS011;8431;52.458;9.998;2024-02-14T06:09:25;8.93;;;8.27;;
16634;SDS011;8431;52.458;9.998;2024-02-14T06:11:53;7.68;;;7.20;;
16634;SDS011;8431;52.458;9.998;2024-02-14T06:14:19;7.95;;;7.47;;
16634;SDS011;8431;52.458;9.998;2024-02-14T06:16:46;7.65;;;7.15;;
16634;SDS011;8431;52.458;9.998;2024-02-14T06:19:13;7.95;;;7.53;;
16634;SDS011;8431;52.458;9.998;2024-02-14T06:21:40;8.20;;;7.60;;
16634;SDS011;8431;52.458;9.998;2024-02-14T06:24:08;8.30;;;7.68;;
16634;SDS011;8431;52.458;9.998;2024-02-14T06:26:38;8.65;;;7.50;;
16634;SDS011;8431;52.458;9.998;2024-02-14T06:29:05;7.75;;;7.07;;
16634;SDS011;8431;52.458;9.998;2024-02-14T06:31:32;7.90;;;7.22;;
16634;SDS011;8431;52.458;9.998;2024-02-14T06:33:58;9.07;;;8.27;;
16634;SDS011;8431;52.458;9.998;2024-02-14T06:36:25;9.50;;;8.70;;
16634;SDS011;8431;52.458;9.998;2024-02-14T06:38:52;9.48;;;8.88;;
16634;SDS011;8431;52.458;9.998;2024-02-14T06:41:20;8.50;;;8.00;;
16634;SDS011;8431;52.458;9.998;2024-02-14T06:43:50;8.55;;;7.82;;
16634;SDS011;8431;52.458;9.998;2024-02-14T06:46:20;8.30;;;7.70;;
16634;SDS011;8431;52.458;9.998;2024-02-14T06:49:05;7.57;;;7.07;;
16634;SDS011;8431;52.458;9.998;2024-02-14T06:51:32;8.88;;;8.10;;
16634;SDS011;8431;52.458;9.998;2024-02-14T06:53:59;9.40;;;8.60;;
16634;SDS011;8431;52.458;9.998;2024-02-14T06:56:27;8.95;;;8.45;;
16634;SDS011;8431;52.458;9.998;2024-02-14T06:58:55;8.13;;;7.55;;
16634;SDS011;8431;52.458;9.998;2024-02-14T07:01:25;7.60;;;7.10;;
16634;SDS011;8431;52.458;9.998;2024-02-14T07:03:52;8.98;;;8.23;;
16634;SDS011;8431;52.458;9.998;2024-02-14T07:06:19;8.27;;;7.88;;
16634;SDS011;8431;52.458;9.998;2024-02-14T07:08:45;7.80;;;7.30;;
16634;SDS011;8431;52.458;9.998;2024-02-14T07:11:13;7.88;;;7.38;;
16634;SDS011;8431;52.458;9.998;2024-02-14T07:13:42;9.05;;;8.32;;
16634;SDS011;8431;52.458;9.998;2024-02-14T07:16:09;8.35;;;7.75;;
16634;SDS011;8431;52.458;9.998;2024-02-14T07:18:36;8.77;;;8.18;;
16634;SDS011;8431;52.458;9.998;2024-02-14T07:21:03;10.20;;;8.68;;
16634;SDS011;8431;52.458;9.998;2024-02-14T07:23:30;9.20;;;8.55;;
16634;SDS011;8431;52.458;9.998;2024-02-14T07:25:58;7.82;;;7.30;;
16634;SDS011;8431;52.458;9.998;2024-02-14T07:28:26;8.38;;;7.65;;
16634;SDS011;8431;52.458;9.998;2024-02-14T07:30:54;7.53;;;7.03;;
16634;SDS011;8431;52.458;9.998;2024-02-14T07:33:21;8.20;;;7.47;;
16634;SDS011;8431;52.458;9.998;2024-02-14T07:35:48;7.63;;;7.13;;
16634;SDS011;8431;52.458;9.998;2024-02-14T07:38:16;9.02;;;8.38;;
16634;SDS011;8431;52.458;9.998;2024-02-14T07:40:42;9.35;;;8.65;;
16634;SDS011;8431;52.458;9.998;2024-02-14T07:43:09;8.65;;;7.88;;
16634;SDS011;8431;52.458;9.998;2024-02-14T07:45:36;8.75;;;8.35;;
16634;SDS011;8431;52.458;9.998;2024-02-14T07:48:05;7.85;;;7.35;;
16634;SDS011;8431;52.458;9.998;2024-02-14T07:50:33;8.90;;;8.20;;
16634;SDS011;8431;52.458;9.998;2024-02-14T07:52:59;9.48;;;8.80;;
16634;SDS011;8431;52.458;9.998;2024-02-14T07:55:27;8.27;;;7.78;;
16634;SDS011;8431;52.458;9.998;2024-02-14T07:57:54;8.63;;;8.02;;
16634;SDS011;8431;52.458;9.998;2024-02-14T08:00:21;9.02;;;8.40;;
16634;SDS011;8431;52.458;9.998;2024-02-14T08:02:48;8.23;;;7.72;;
16634;SDS011;8431;52.458;9.998;2024-02-14T08:05:17;7.88;;;7.47;;
16634;SDS011;8431;52.458;9.998;2024-02-14T08:07:44;7.65;;;7.15;;
16634;SDS011;8431;52.458;9.998;2024-02-14T08:10:11;7.88;;;7.47;;
16634;SDS011;8431;52.458;9.998;2024-02-14T08:12:38;8.30;;;7.60;;
16634;SDS011;8431;52.458;9.998;2024-02-14T08:15:05;8.15;;;7.53;;
16634;SDS011;8431;52.458;9.998;2024-02-14T08:17:33;8.32;;;7.80;;
16634;SDS011;8431;52.458;9.998;2024-02-14T08:20:00;8.50;;;7.80;;
16634;SDS011;8431;52.458;9.998;2024-02-14T08:22:30;7.90;;;7.50;;
16634;SDS011;8431;52.458;9.998;2024-02-14T08:24:57;8.05;;;7.50;;
16634;SDS011;8431;52.458;9.998;2024-02-14T08:27:24;7.90;;;7.50;;
16634;SDS011;8431;52.458;9.998;2024-02-14T08:29:52;8.00;;;7.60;;
16634;SDS011;8431;52.458;9.998;2024-02-14T08:32:19;8.10;;;7.60;;
16634;SDS011;8431;52.458;9.998;2024-02-14T08:34:46;7.10;;;6.70;;
16634;SDS011;8431;52.458;9.998;2024-02-14T08:37:13;7.50;;;7.00;;
16634;SDS011;8431;52.458;9.998;2024-02-14T08:39:41;7.47;;;7.13;;
16634;SDS011;8431;52.458;9.998;2024-02-14T08:42:08;7.68;;;7.07;;
16634;SDS011;8431;52.458;9.998;2024-02-14T08:44:35;7.10;;;6.55;;
16634;SDS011;8431;52.458;9.998;2024-02-14T08:47:02;6.88;;;6.38;;
16634;SDS011;8431;52.458;9.998;2024-02-14T08:49:29;7.68;;;7.28;;
16634;SDS011;8431;52.458;9.998;2024-02-14T08:51:56;7.55;;;6.88;;
16634;SDS011;8431;52.458;9.998;2024-02-14T08:54:23;7.60;;;7.25;;
16634;SDS011;8431;52.458;9.998;2024-02-14T08:56:51;7.00;;;6.70;;
16634;SDS011;8431;52.458;9.998;2024-02-14T08:59:20;7.80;;;7.50;;
16634;SDS011;8431;52.458;9.998;2024-02-14T09:01:47;8.23;;;7.57;;
16634;SDS011;8431;52.458;9.998;2024-02-14T09:04:14;7.07;;;6.78;;
16634;SDS011;8431;52.458;9.998;2024-02-14T09:06:41;7.22;;;6.93;;
16634;SDS011;8431;52.458;9.998;2024-02-14T09:09:08;7.22;;;6.82;;
16634;SDS011;8431;52.458;9.998;2024-02-14T09:11:35;8.00;;;7.47;;
16634;SDS011;8431;52.458;9.998;2024-02-14T09:14:03;7.18;;;6.60;;
16634;SDS011;8431;52.458;9.998;2024-02-14T09:16:31;6.80;;;6.50;;
16634;SDS011;8431;52.458;9.998;2024-02-14T09:18:58;6.45;;;6.25;;
16634;SDS011;8431;52.458;9.998;2024-02-14T09:21:26;6.85;;;6.55;;
16634;SDS011;8431;52.458;9.998;2024-02-14T09:23:54;6.47;;;6.28;;
16634;SDS011;8431;52.458;9.998;2024-02-14T09:26:20;6.25;;;5.95;;
16634;SDS011;8431;52.458;9.998;2024-02-14T09:28:47;7.15;;;6.85;;
16634;SDS011;8431;52.458;9.998;2024-02-14T09:31:18;7.22;;;6.93;;
16634;SDS011;8431;52.458;9.998;2024-02-14T09:33:45;7.57;;;7.28;;
16634;SDS011;8431;52.458;9.998;2024-02-14T09:36:14;7.22;;;6.93;;
16634;SDS011;8431;52.458;9.998;2024-02-14T09:38:40;7.45;;;7.13;;
16634;SDS011;8431;52.458;9.998;2024-02-14T09:41:10;7.30;;;7.00;;
16634;SDS011;8431;52.458;9.998;2024-02-14T09:43:43;6.90;;;6.55;;
16634;SDS011;8431;52.458;9.998;2024-02-14T09:46:11;7.35;;;6.95;;
16634;SDS011;8431;52.458;9.998;2024-02-14T09:48:41;6.65;;;6.35;;
16634;SDS011;8431;52.458;9.998;2024-02-14T09:51:10;7.40;;;7.00;;
16634;SDS011;8431;52.458;9.998;2024-02-14T09:53:37;8.15;;;7.78;;
16634;SDS011;8431;52.458;9.998;2024-02-14T09:56:05;9.40;;;8.80;;
16634;SDS011;8431;52.458;9.998;2024-02-14T09:58:35;8.38;;;7.88;;
16634;SDS011;8431;52.458;9.998;2024-02-14T10:01:06;8.73;;;8.23;;
16634;SDS011;8431;52.458;9.998;2024-02-14T10:03:32;8.75;;;8.20;;
16634;SDS011;8431;52.458;9.998;2024-02-14T10:06:01;9.07;;;8.23;;
16634;SDS011;8431;52.458;9.998;2024-02-14T10:08:29;8.73;;;8.23;;
16634;SDS011;8431;52.458;9.998;2024-02-14T10:10:56;9.32;;;8.63;;
16634;SDS011;8431;52.458;9.998;2024-02-14T10:13:26;8.43;;;7.90;;
16634;SDS011;8431;52.458;9.998;2024-02-14T10:15:54;8.65;;;8.00;;
16634;SDS011;8431;52.458;9.998;2024-02-14T10:18:22;8.30;;;7.75;;
16634;SDS011;8431;52.458;9.998;2024-02-14T10:20:53;9.60;;;9.00;;
16634;SDS011;8431;52.458;9.998;2024-02-14T10:23:26;9.27;;;8.65;;
16634;SDS011;8431;52.458;9.998;2024-02-14T10:25:54;8.70;;;8.10;;
16634;SDS011;8431;52.458;9.998;2024-02-14T10:28:22;9.88;;;9.25;;
16634;SDS011;8431;52.458;9.998;2024-02-14T10:30:50;10.68;;;10.00;;
16634;SDS011;8431;52.458;9.998;2024-02-14T10:33:16;10.15;;;9.43;;
16634;SDS011;8431;52.458;9.998;2024-02-14T10:35:44;10.35;;;9.75;;
16634;SDS011;8431;52.458;9.998;2024-02-14T10:38:11;10.65;;;9.95;;
16634;SDS011;8431;52.458;9.998;2024-02-14T10:40:42;11.32;;;10.63;;
16634;SDS011;8431;52.458;9.998;2024-02-14T10:43:13;10.77;;;10.07;;
16634;SDS011;8431;52.458;9.998;2024-02-14T10:45:40;10.55;;;9.75;;
16634;SDS011;8431;52.458;9.998;2024-02-14T10:48:08;10.57;;;9.88;;
16634;SDS011;8431;52.458;9.998;2024-02-14T10:50:39;9.77;;;9.18;;
16634;SDS011;8431;52.458;9.998;2024-02-14T10:53:11;10.27;;;9.50;;
16634;SDS011;8431;52.458;9.998;2024-02-14T10:55:41;11.75;;;10.95;;
16634;SDS011;8431;52.458;9.998;2024-02-14T10:58:11;11.38;;;10.55;;
16634;SDS011;8431;52.458;9.998;2024-02-14T11:00:40;11.85;;;10.85;;
16634;SDS011;8431;52.458;9.998;2024-02-14T11:03:08;11.55;;;10.85;;
16634;SDS011;8431;52.458;9.998;2024-02-14T11:05:42;12.63;;;11.85;;
16634;SDS011;8431;52.458;9.998;2024-02-14T11:08:13;12.35;;;11.55;;
16634;SDS011;8431;52.458;9.998;2024-02-14T11:10:40;11.75;;;10.85;;
16634;SDS011;8431;52.458;9.998;2024-02-14T11:13:10;10.75;;;10.07;;
16634;SDS011;8431;52.458;9.998;2024-02-14T11:15:39;11.23;;;10.52;;
16634;SDS011;8431;52.458;9.998;2024-02-14T11:18:07;10.98;;;10.27;;
16634;SDS011;8431;52.458;9.998;2024-02-14T11:20:35;9.77;;;9.07;;
16634;SDS011;8431;52.458;9.998;2024-02-14T11:23:03;10.10;;;9.30;;
16634;SDS011;8431;52.458;9.998;2024-02-14T11:25:31;9.70;;;9.00;;
16634;SDS011;8431;52.458;9.998;2024-02-14T11:28:00;9.65;;;9.05;;
16634;SDS011;8431;52.458;9.998;2024-02-14T11:30:30;8.40;;;7.88;;
16634;SDS011;8431;52.458;9.998;2024-02-14T11:33:12;8.98;;;8.43;;
16634;SDS011;8431;52.458;9.998;2024-02-14T11:35:41;9.90;;;9.32;;
16634;SDS011;8431;52.458;9.998;2024-02-14T11:38:08;9.15;;;8.65;;
16634;SDS011;8431;52.458;9.998;2024-02-14T11:40:35;8.57;;;7.95;;
16634;SDS011;8431;52.458;9.998;2024-02-14T11:43:10;9.38;;;8.82;;
16634;SDS011;8431;52.458;9.998;2024-02-14T11:45:40;8.48;;;7.88;;
16634;SDS011;8431;52.458;9.998;2024-02-14T11:48:08;7.78;;;7.38;;
16634;SDS011;8431;52.458;9.998;2024-02-14T11:50:36;8.70;;;8.00;;
16634;SDS011;8431;52.458;9.998;2024-02-14T11:53:06;8.32;;;7.63;;
16634;SDS011;8431;52.458;9.998;2024-02-14T11:55:34;9.57;;;8.93;;
16634;SDS011;8431;52.458;9.998;2024-02-14T11:58:02;9.27;;;8.40;;
16634;SDS011;8431;52.458;9.998;2024-02-14T12:00:33;9.43;;;8.82;;
16634;SDS011;8431;52.458;9.998;2024-02-14T12:03:02;9.43;;;8.75;;
16634;SDS011;8431;52.458;9.998;2024-02-14T12:05:30;8.90;;;8.30;;
16634;SDS011;8431;52.458;9.998;2024-02-14T12:07:58;9.38;;;8.77;;
16634;SDS011;8431;52.458;9.998;2024-02-14T12:10:25;9.00;;;8.50;;
16634;SDS011;8431;52.458;9.998;2024-02-14T12:12:52;9.27;;;8.68;;
16634;SDS011;8431;52.458;9.998;2024-02-14T12:15:22;9.45;;;8.95;;
16634;SDS011;8431;52.458;9.998;2024-02-14T12:17:49;9.05;;;8.52;;
16634;SDS011;8431;52.458;9.998;2024-02-14T12:20:21;9.73;;;9.13;;
16634;SDS011;8431;52.458;9.998;2024-02-14T12:22:49;9.60;;;9.07;;
16634;SDS011;8431;52.458;9.998;2024-02-14T12:25:16;9.55;;;9.05;;
16634;SDS011;8431;52.458;9.998;2024-02-14T12:27:51;9.90;;;9.40;;
16634;SDS011;8431;52.458;9.998;2024-02-14T12:30:18;9.32;;;8.82;;
16634;SDS011;8431;52.458;9.998;2024-02-14T12:32:45;9.77;;;9.27;;
16634;SDS011;8431;52.458;9.998;2024-02-14T12:35:11;10.38;;;9.57;;
16634;SDS011;8431;52.458;9.998;2024-02-14T12:37:40;13.63;;;10.20;;
16634;SDS011;8431;52.458;9.998;2024-02-14T12:40:08;10.05;;;9.40;;
16634;SDS011;8431;52.458;9.998;2024-02-14T12:42:35;9.60;;;9.10;;
16634;SDS011;8431;52.458;9.998;2024-02-14T12:45:02;8.65;;;8.15;;
16634;SDS011;8431;52.458;9.998;2024-02-14T12:47:29;8.90;;;8.40;;
16634;SDS011;8431;52.458;9.998;2024-02-14T12:50:00;9.68;;;9.07;;
16634;SDS011;8431;52.458;9.998;2024-02-14T12:52:27;8.55;;;7.97;;
16634;SDS011;8431;52.458;9.998;2024-02-14T12:54:55;10.60;;;9.65;;
16634;SDS011;8431;52.458;9.998;2024-02-14T12:57:21;10.05;;;9.35;;
16634;SDS011;8431;52.458;9.998;2024-02-14T12:59:48;9.63;;;9.02;;
16634;SDS011;8431;52.458;9.998;2024-02-14T13:02:15;10.43;;;9.73;;
16634;SDS011;8431;52.458;9.998;2024-02-14T13:04:42;9.23;;;8.63;;
16634;SDS011;8431;52.458;9.998;2024-02-14T13:07:09;9.70;;;9.10;;
16634;SDS011;8431;52.458;9.998;2024-02-14T13:09:36;9.93;;;9.27;;
16634;SDS011;8431;52.458;9.998;2024-02-14T13:12:05;11.95;;;10.98;;
16634;SDS011;8431;52.458;9.998;2024-02-14T13:14:34;10.63;;;10.02;;
16634;SDS011;8431;52.458;9.998;2024-02-14T13:17:01;10.57;;;9.98;;
16634;SDS011;8431;52.458;9.998;2024-02-14T13:19:29;10.90;;;10.30;;
16634;SDS011;8431;52.458;9.998;2024-02-14T13:21:56;10.43;;;9.82;;
16634;SDS011;8431;52.458;9.998;2024-02-14T13:24:23;11.30;;;10.60;;
16634;SDS011;8431;52.458;9.998;2024-02-14T13:26:50;11.43;;;10.73;;
16634;SDS011;8431;52.458;9.998;2024-02-14T13:29:18;11.75;;;10.95;;
16634;SDS011;8431;52.458;9.998;2024-02-14T13:31:45;10.98;;;10.38;;
16634;SDS011;8431;52.458;9.998;2024-02-14T13:34:12;11.30;;;10.60;;
16634;SDS011;8431;52.458;9.998;2024-02-14T13:36:40;11.93;;;11.23;;
16634;SDS011;8431;52.458;9.998;2024-02-14T13:39:07;11.98;;;11.27;;
16634;SDS011;8431;52.458;9.998;2024-02-14T13:41:34;12.00;;;11.15;;
16634;SDS011;8431;52.458;9.998;2024-02-14T13:47:10;9.73;;;9.13;;
16634;SDS011;8431;52.458;9.998;2024-02-14T13:49:46;11.07;;;10.27;;
16634;SDS011;8431;52.458;9.998;2024-02-14T13:52:13;11.57;;;10.75;;
16634;SDS011;8431;52.458;9.998;2024-02-14T13:54:42;11.32;;;10.60;;
16634;SDS011;8431;52.458;9.998;2024-02-14T13:59:59;10.85;;;10.05;;
16634;SDS011;8431;52.458;9.998;2024-02-14T14:02:26;10.93;;;10.27;;
16634;SDS011;8431;52.458;9.998;2024-02-14T14:05:01;12.52;;;11.68;;
16634;SDS011;8431;52.458;9.998;2024-02-14T14:07:28;11.80;;;11.00;;
16634;SDS011;8431;52.458;9.998;2024-02-14T14:09:55;12.23;;;11.32;;
16634;SDS011;8431;52.458;9.998;2024-02-14T14:12:21;11.48;;;10.73;;
16634;SDS011;8431;52.458;9.998;2024-02-14T14:14:48;11.30;;;10.50;;
16634;SDS011;8431;52.458;9.998;2024-02-14T14:17:16;11.13;;;10.43;;
16634;SDS011;8431;52.458;9.998;2024-02-14T14:19:43;11.18;;;10.27;;
16634;SDS011;8431;52.458;9.998;2024-02-14T14:22:10;10.68;;;9.98;;
16634;SDS011;8431;52.458;9.998;2024-02-14T14:24:36;11.20;;;10.18;;
16634;SDS011;8431;52.458;9.998;2024-02-14T14:27:03;10.40;;;9.80;;
16634;SDS011;8431;52.458;9.998;2024-02-14T14:29:33;10.43;;;9.82;;
16634;SDS011;8431;52.458;9.998;2024-02-14T14:32:03;10.18;;;9.52;;
16634;SDS011;8431;52.458;9.998;2024-02-14T14:34:32;10.88;;;10.27;;
16634;SDS011;8431;52.458;9.998;2024-02-14T14:36:59;10.43;;;9.82;;
16634;SDS011;8431;52.458;9.998;2024-02-14T14:39:26;9.90;;;9.30;;
16634;SDS011;8431;52.458;9.998;2024-02-14T14:41:53;9.35;;;8.75;;
16634;SDS011;8431;52.458;9.998;2024-02-14T14:44:23;10.13;;;9.52;;
16634;SDS011;8431;52.458;9.998;2024-02-14T14:46:50;9.13;;;8.63;;
16634;SDS011;8431;52.458;9.998;2024-02-14T14:49:16;9.02;;;8.43;;
16634;SDS011;8431;52.458;9.998;2024-02-14T14:54:33;8.88;;;8.27;;
16634;SDS011;8431;52.458;9.998;2024-02-14T14:57:00;8.57;;;8.18;;
16634;SDS011;8431;52.458;9.998;2024-02-14T14:59:29;8.15;;;7.65;;
16634;SDS011;8431;52.458;9.998;2024-02-14T15:01:55;7.40;;;7.00;;
16634;SDS011;8431;52.458;9.998;2024-02-14T15:04:22;7.50;;;7.10;;
16634;SDS011;8431;52.458;9.998;2024-02-14T15:09:47;7.57;;;7.28;;
16634;SDS011;8431;52.458;9.998;2024-02-14T15:12:14;7.45;;;7.15;;